createdAt,value
2023-05-08T00:01:24.559Z,26.97
2023-05-08T00:03:56.300Z,26.27
2023-05-08T00:06:28.891Z,26.30
2023-05-08T00:08:59.719Z,28.98
2023-05-08T00:11:34.859Z,30.27
2023-05-08T00:14:05.788Z,30.92
2023-05-08T00:16:37.065Z,30.68
2023-05-08T00:19:08.011Z,27.75
2023-05-08T00:21:38.742Z,27.93
2023-05-08T00:24:09.940Z,30.92
2023-05-08T00:26:40.676Z,30.27
2023-05-08T00:29:12.564Z,32.50
2023-05-08T00:31:43.475Z,29.85
2023-05-08T00:34:14.333Z,27.98
2023-05-08T00:36:45.082Z,33.28
2023-05-08T00:39:15.808Z,31.50
2023-05-08T00:41:46.594Z,30.08
2023-05-08T00:44:17.329Z,31.90
2023-05-08T00:46:48.642Z,28.12
2023-05-08T00:49:19.756Z,27.48
2023-05-08T00:51:52.337Z,29.92
2023-05-08T00:54:29.891Z,29.98
2023-05-08T00:57:00.839Z,29.30
2023-05-08T00:59:31.920Z,29.55
2023-05-08T01:02:03.886Z,34.50
2023-05-08T01:04:35.633Z,37.78
2023-05-08T01:07:06.715Z,32.28
2023-05-08T01:09:37.728Z,31.40
2023-05-08T01:12:17.256Z,39.92
2023-05-08T01:15:20.873Z,48.80
2023-05-08T01:18:05.784Z,80.32
2023-05-08T01:20:55.601Z,40.63
2023-05-08T01:23:57.544Z,46.70
2023-05-08T01:26:52.160Z,31.05
2023-05-08T01:29:55.531Z,37.60
2023-05-08T01:32:45.182Z,31.97
2023-05-08T01:35:33.114Z,33.38
2023-05-08T01:38:22.817Z,36.80
2023-05-08T01:41:14.545Z,31.45
2023-05-08T01:43:57.000Z,31.00
2023-05-08T01:46:37.904Z,26.97
2023-05-08T01:49:15.946Z,28.87
2023-05-08T01:52:04.215Z,23.92
2023-05-08T01:54:40.232Z,26.12
2023-05-08T01:57:13.134Z,23.18
2023-05-08T01:59:45.130Z,23.50
2023-05-08T02:02:17.369Z,23.42
2023-05-08T02:04:49.152Z,18.42
2023-05-08T02:07:21.412Z,11.22
2023-05-08T02:09:53.504Z,16.12
2023-05-08T02:12:25.064Z,12.25
2023-05-08T02:14:58.554Z,13.72
2023-05-08T02:17:31.220Z,12.93
2023-05-08T02:20:03.809Z,17.20
2023-05-08T02:22:37.321Z,13.35
2023-05-08T02:25:09.285Z,14.20
2023-05-08T02:27:41.858Z,14.73
2023-05-08T02:30:15.473Z,14.95
2023-05-08T02:32:49.053Z,14.60
2023-05-08T02:35:22.288Z,10.43
2023-05-08T02:37:58.450Z,13.13
2023-05-08T02:40:31.216Z,12.70
2023-05-08T02:43:02.452Z,13.58
2023-05-08T02:45:41.400Z,21.40
2023-05-08T02:48:18.356Z,14.50
2023-05-08T02:51:12.448Z,14.75
2023-05-08T02:53:46.226Z,13.85
2023-05-08T02:56:25.107Z,11.05
2023-05-08T02:59:04.789Z,11.70
2023-05-08T03:01:38.075Z,8.75
2023-05-08T03:04:11.544Z,10.23
2023-05-08T03:06:50.257Z,9.03
2023-05-08T03:09:27.203Z,9.48
2023-05-08T03:12:00.616Z,10.03
2023-05-08T03:14:32.450Z,8.00
2023-05-08T03:17:05.060Z,10.15
2023-05-08T03:19:38.451Z,10.55
2023-05-08T03:22:11.177Z,10.08
2023-05-08T03:24:44.690Z,12.15
2023-05-08T03:27:17.004Z,9.58
2023-05-08T03:29:49.685Z,11.33
2023-05-08T03:32:21.112Z,9.28
2023-05-08T03:34:53.515Z,12.37
2023-05-08T03:37:24.630Z,9.58
2023-05-08T03:39:55.577Z,9.28
2023-05-08T03:42:28.167Z,14.73
2023-05-08T03:45:01.069Z,21.12
2023-05-08T03:47:32.446Z,14.10
2023-05-08T03:50:03.648Z,9.48
2023-05-08T03:52:35.772Z,11.45
2023-05-08T03:55:07.168Z,10.48
2023-05-08T03:58:07.607Z,11.08
2023-05-08T04:00:43.632Z,9.45
2023-05-08T04:03:30.342Z,9.85
2023-05-08T04:06:04.020Z,8.70
2023-05-08T04:08:37.286Z,13.43
2023-05-08T04:11:10.531Z,8.93
2023-05-08T04:13:44.629Z,10.68
2023-05-08T04:16:29.902Z,6.20
2023-05-08T04:19:06.389Z,11.50
2023-05-08T04:24:10.373Z,10.32
2023-05-08T04:26:42.211Z,9.58
2023-05-08T04:29:13.402Z,9.80
2023-05-08T04:31:44.692Z,9.23
2023-05-08T04:34:16.283Z,11.33
2023-05-08T04:36:49.160Z,8.73
2023-05-08T04:39:19.523Z,10.82
2023-05-08T04:41:51.730Z,13.10
2023-05-08T04:44:23.033Z,13.83
2023-05-08T04:46:56.813Z,17.95
2023-05-08T04:49:28.132Z,16.77
2023-05-08T04:51:59.706Z,16.60
2023-05-08T04:54:30.579Z,18.23
2023-05-08T04:57:01.637Z,16.32
2023-05-08T04:59:32.500Z,14.90
2023-05-08T05:02:08.967Z,57.35
2023-05-08T05:10:19.220Z,19.00
2023-05-08T05:13:10.673Z,10.43
2023-05-08T05:15:36.315Z,17.15
2023-05-08T05:18:14.320Z,14.58
2023-05-08T05:20:42.286Z,13.25
2023-05-08T05:23:22.466Z,13.70
2023-05-08T05:25:58.906Z,12.33
2023-05-08T05:31:03.111Z,10.63
2023-05-08T05:33:36.233Z,10.98
2023-05-08T05:36:08.356Z,10.30
2023-05-08T05:38:46.690Z,9.08
2023-05-08T05:41:22.948Z,11.15
2023-05-08T05:43:57.960Z,18.48
2023-05-08T05:46:36.386Z,15.55
2023-05-08T05:49:05.561Z,12.20
2023-05-08T05:52:12.950Z,10.70
2023-05-08T05:54:15.724Z,11.45
2023-05-08T05:56:46.671Z,10.90
2023-05-08T05:59:19.117Z,13.20
2023-05-08T06:01:56.309Z,12.68
2023-05-08T06:04:34.796Z,12.13
2023-05-08T06:07:02.957Z,20.30
2023-05-08T06:09:34.885Z,15.15
2023-05-08T06:12:06.469Z,9.70
2023-05-08T06:14:37.690Z,9.95
2023-05-08T06:17:08.828Z,12.37
2023-05-08T06:19:39.782Z,14.58
2023-05-08T06:22:18.161Z,10.63
2023-05-08T06:24:54.827Z,13.13
2023-05-08T06:27:25.695Z,13.30
2023-05-08T06:30:08.921Z,14.10
2023-05-08T06:32:40.062Z,9.75
2023-05-08T06:35:13.739Z,10.72
2023-05-08T06:37:45.043Z,10.53
2023-05-08T06:40:16.974Z,11.63
2023-05-08T06:42:48.594Z,11.15
2023-05-08T06:45:22.645Z,11.25
2023-05-08T06:47:53.747Z,11.08
2023-05-08T06:50:25.152Z,8.80
2023-05-08T06:53:03.396Z,10.68
2023-05-08T06:55:28.528Z,11.25
2023-05-08T06:57:59.762Z,12.37
2023-05-08T07:00:31.151Z,13.93
2023-05-08T07:03:02.279Z,11.50
2023-05-08T07:05:33.645Z,14.30
2023-05-08T07:08:08.893Z,12.55
2023-05-08T07:17:08.528Z,14.83
2023-05-08T07:22:10.127Z,13.80
2023-05-08T07:24:40.962Z,11.90
2023-05-08T07:27:11.725Z,14.35
2023-05-08T07:29:43.635Z,14.93
2023-05-08T07:32:14.633Z,11.70
2023-05-08T07:34:45.471Z,10.13
2023-05-08T07:37:16.915Z,13.13
2023-05-08T07:39:48.734Z,16.75
2023-05-08T07:42:19.990Z,10.03
2023-05-08T07:44:54.943Z,13.62
2023-05-08T07:47:25.929Z,10.43
2023-05-08T07:49:57.032Z,13.53
2023-05-08T07:52:28.369Z,13.60
2023-05-08T07:54:59.996Z,13.15
2023-05-08T07:57:32.462Z,9.43
2023-05-08T08:00:04.692Z,11.33
2023-05-08T08:02:35.575Z,11.78
2023-05-08T08:05:07.291Z,12.30
2023-05-08T08:07:38.083Z,10.00
2023-05-08T08:10:11.131Z,10.65
2023-05-08T08:12:43.749Z,14.20
2023-05-08T08:15:14.875Z,11.38
2023-05-08T08:17:47.006Z,17.30
2023-05-08T08:20:18.330Z,12.75
2023-05-08T08:22:49.489Z,11.08
2023-05-08T08:25:20.202Z,12.70
2023-05-08T08:27:50.917Z,14.70
2023-05-08T08:30:21.848Z,13.22
2023-05-08T08:32:52.586Z,15.63
2023-05-08T08:35:25.591Z,11.35
2023-05-08T08:37:56.321Z,11.33
2023-05-08T08:40:27.733Z,13.18
2023-05-08T08:42:58.744Z,11.60
2023-05-08T08:45:29.800Z,12.65
2023-05-08T08:48:03.126Z,15.80
2023-05-08T08:50:35.412Z,12.70
2023-05-08T08:53:18.343Z,14.20
2023-05-08T08:55:51.421Z,12.45
2023-05-08T08:58:27.767Z,12.53
2023-05-08T09:00:59.536Z,11.30
2023-05-08T09:03:31.093Z,10.25
2023-05-08T09:06:05.427Z,14.20
2023-05-08T09:08:36.832Z,20.88
2023-05-08T09:11:07.668Z,11.53
2023-05-08T09:13:38.517Z,12.90
2023-05-08T09:16:09.881Z,12.47
2023-05-08T09:18:40.721Z,14.30
2023-05-08T09:21:11.648Z,9.68
2023-05-08T09:24:00.932Z,10.40
2023-05-08T09:26:37.110Z,19.50
2023-05-08T09:29:23.733Z,12.73
2023-05-08T09:31:55.805Z,11.90
2023-05-08T09:34:29.684Z,11.40
2023-05-08T09:37:24.575Z,14.20
2023-05-08T09:39:57.627Z,12.28
2023-05-08T09:42:35.663Z,12.18
2023-05-08T09:45:07.098Z,14.65
2023-05-08T09:47:41.609Z,12.88
2023-05-08T09:50:34.277Z,18.12
2023-05-08T09:53:05.667Z,11.83
2023-05-08T09:55:49.607Z,10.95
2023-05-08T09:58:34.573Z,14.65
2023-05-08T10:01:40.168Z,14.73
2023-05-08T10:06:41.163Z,17.57
2023-05-08T10:09:18.771Z,17.02
2023-05-08T10:11:54.450Z,12.23
2023-05-08T10:14:28.399Z,19.47
2023-05-08T10:17:00.281Z,18.27
2023-05-08T10:19:31.559Z,17.90
2023-05-08T10:22:09.324Z,16.32
2023-05-08T10:25:08.062Z,16.10
2023-05-08T10:27:39.680Z,15.08
2023-05-08T10:30:28.630Z,14.85
2023-05-08T10:33:00.589Z,13.55
2023-05-08T10:35:33.102Z,20.23
2023-05-08T10:38:05.258Z,14.93
2023-05-08T10:40:36.623Z,14.68
2023-05-08T10:43:10.887Z,12.37
2023-05-08T10:45:55.921Z,16.42
2023-05-08T10:48:47.467Z,11.73
2023-05-08T10:51:33.219Z,13.62
2023-05-08T10:54:23.783Z,14.78
2023-05-08T10:56:54.488Z,16.10
2023-05-08T10:59:25.736Z,17.87
2023-05-08T11:01:59.231Z,13.53
2023-05-08T11:04:32.798Z,14.90
2023-05-08T11:07:05.551Z,14.63
2023-05-08T11:09:48.035Z,11.57
2023-05-08T11:12:27.217Z,17.60
2023-05-08T11:18:25.047Z,17.12
2023-05-08T11:21:00.868Z,13.38
2023-05-08T11:23:35.270Z,14.73
2023-05-08T11:26:10.763Z,15.10
2023-05-08T11:28:58.972Z,19.30
2023-05-08T11:31:48.614Z,14.13
2023-05-08T11:35:00.964Z,17.35
2023-05-08T11:37:32.157Z,16.27
2023-05-08T11:43:26.723Z,19.00
2023-05-08T11:45:57.925Z,15.98
2023-05-08T11:54:37.508Z,18.62
2023-05-08T11:57:08.417Z,16.95
2023-05-08T12:00:15.202Z,15.25
2023-05-08T12:02:44.442Z,14.20
2023-05-08T12:05:35.169Z,14.25
2023-05-08T12:08:07.418Z,15.75
2023-05-08T12:11:33.529Z,16.35
2023-05-08T12:14:06.347Z,23.98
2023-05-08T12:16:45.473Z,21.20
2023-05-08T12:28:40.334Z,20.80
2023-05-08T12:31:16.289Z,20.77
2023-05-08T12:36:38.975Z,19.77
2023-05-08T12:39:29.085Z,21.73
2023-05-08T12:42:38.437Z,23.00
2023-05-08T12:46:03.186Z,22.20
2023-05-08T12:51:55.999Z,14.58
2023-05-08T12:54:35.909Z,18.02
2023-05-08T12:57:24.257Z,18.57
2023-05-08T13:00:04.734Z,19.95
2023-05-08T13:02:59.040Z,17.17
2023-05-08T13:06:15.859Z,14.20
2023-05-08T13:22:03.774Z,15.08
2023-05-08T13:24:40.104Z,22.85
2023-05-08T13:30:33.798Z,19.57
2023-05-08T13:33:22.956Z,22.42
2023-05-08T13:36:17.298Z,18.40
2023-05-08T13:39:02.558Z,20.65
2023-05-08T13:41:36.926Z,20.23
2023-05-08T13:44:07.248Z,13.88
2023-05-08T13:46:42.540Z,13.38
2023-05-08T13:52:09.633Z,16.57
2023-05-08T13:56:02.258Z,15.78
2023-05-08T13:58:04.659Z,18.98
2023-05-08T14:00:44.746Z,15.05
2023-05-08T14:03:21.417Z,19.87
2023-05-08T14:11:49.611Z,23.00
2023-05-08T14:21:18.387Z,18.00
2023-05-08T14:23:58.185Z,18.30
2023-05-08T14:26:09.823Z,18.20
2023-05-08T14:28:44.171Z,15.95
2023-05-08T14:31:23.228Z,18.45
2023-05-08T14:36:53.805Z,17.87
2023-05-08T14:45:36.962Z,18.48
2023-05-08T14:52:06.743Z,21.20
2023-05-08T15:01:41.270Z,20.57
2023-05-08T15:04:18.684Z,18.92
2023-05-08T15:06:53.652Z,16.00
2023-05-08T15:09:24.811Z,17.02
2023-05-08T15:12:01.128Z,15.98
2023-05-08T15:18:20.681Z,17.65
2023-05-08T15:21:19.546Z,17.10
2023-05-08T15:24:13.320Z,16.07
2023-05-08T15:26:26.760Z,18.52
2023-05-08T15:29:04.921Z,15.58
2023-05-08T15:31:35.854Z,17.45
2023-05-08T15:34:10.737Z,13.98
2023-05-08T15:36:42.696Z,13.48
2023-05-08T15:39:13.539Z,14.80
2023-05-08T15:41:45.513Z,13.98
2023-05-08T15:44:16.546Z,13.03
2023-05-08T15:46:50.225Z,13.00
2023-05-08T15:52:16.252Z,12.73
2023-05-08T15:54:47.591Z,11.03
2023-05-08T15:57:18.940Z,13.03
2023-05-08T16:00:01.164Z,10.63
2023-05-08T16:08:32.123Z,9.20
2023-05-08T16:11:04.546Z,10.80
2023-05-08T16:13:38.773Z,10.88
2023-05-08T16:16:10.343Z,12.75
2023-05-08T16:18:43.555Z,9.28
2023-05-08T16:21:17.724Z,10.80
2023-05-08T16:23:51.773Z,9.08
2023-05-08T16:26:23.600Z,11.53
2023-05-08T16:28:57.534Z,12.30
2023-05-08T16:31:32.259Z,11.48
2023-05-08T16:34:03.023Z,12.63
2023-05-08T16:39:26.320Z,11.75
2023-05-08T16:42:00.624Z,9.70
2023-05-08T16:44:31.580Z,11.40
2023-05-08T16:47:23.824Z,13.08
2023-05-08T16:52:53.383Z,11.88
2023-05-08T16:55:27.138Z,10.93
2023-05-08T16:58:05.611Z,10.93
2023-05-08T17:00:38.081Z,9.95
2023-05-08T17:03:08.561Z,11.05
2023-05-08T17:05:46.893Z,10.38
2023-05-08T17:08:17.433Z,10.90
2023-05-08T17:10:55.504Z,12.30
2023-05-08T17:13:26.340Z,12.73
2023-05-08T17:15:57.510Z,10.72
2023-05-08T17:18:28.428Z,10.53
2023-05-08T17:21:09.821Z,12.45
2023-05-08T17:23:45.815Z,10.20
2023-05-08T17:29:29.200Z,13.00
2023-05-08T17:52:45.755Z,10.68
2023-05-08T17:58:22.119Z,11.75
2023-05-08T18:00:53.215Z,11.90
2023-05-08T18:03:24.469Z,11.73
2023-05-08T18:05:59.457Z,12.03
2023-05-08T18:08:30.351Z,11.43
2023-05-08T18:11:05.615Z,9.80
2023-05-08T18:13:48.753Z,11.38
2023-05-08T18:16:19.713Z,13.45
2023-05-08T18:19:00.841Z,9.98
2023-05-08T18:21:34.279Z,9.65
2023-05-08T18:24:05.188Z,10.75
2023-05-08T18:26:35.951Z,16.10
2023-05-08T18:29:19.380Z,10.35
2023-05-08T18:31:50.559Z,9.53
2023-05-08T18:34:23.420Z,10.00
2023-05-08T18:36:56.156Z,11.38
2023-05-08T18:39:30.262Z,14.80
2023-05-08T18:42:03.188Z,11.28
2023-05-08T18:44:35.648Z,10.63
2023-05-08T18:47:06.427Z,10.95
2023-05-08T18:49:38.595Z,14.73
2023-05-08T18:52:09.442Z,12.23
2023-05-08T18:54:42.479Z,11.90
2023-05-08T18:57:13.204Z,13.05
2023-05-08T18:59:43.979Z,11.48
2023-05-08T19:02:14.814Z,10.58
2023-05-08T19:04:45.828Z,11.15
2023-05-08T19:07:16.751Z,10.08
2023-05-08T19:09:49.485Z,12.65
2023-05-08T19:12:28.282Z,11.65
2023-05-08T19:15:00.805Z,11.83
2023-05-08T19:17:31.060Z,12.78
2023-05-08T19:20:05.353Z,11.95
2023-05-08T19:22:40.069Z,11.50
2023-05-08T19:25:14.445Z,11.25
2023-05-08T19:27:47.383Z,12.23
2023-05-08T19:33:09.842Z,11.95
2023-05-08T19:35:41.187Z,11.95
2023-05-08T19:41:02.483Z,12.47
2023-05-08T19:43:34.490Z,11.68
2023-05-08T19:46:05.479Z,11.15
2023-05-08T19:48:36.386Z,11.68
2023-05-08T19:51:10.705Z,13.00
2023-05-08T19:53:41.728Z,13.68
2023-05-08T19:56:12.474Z,11.08
2023-05-08T19:58:43.246Z,12.50
2023-05-08T20:01:14.166Z,11.48
2023-05-08T20:03:58.963Z,12.13
2023-05-08T20:06:32.353Z,11.28
2023-05-08T20:09:03.127Z,12.55
2023-05-08T20:11:33.898Z,13.40
2023-05-08T20:14:04.639Z,13.13
2023-05-08T20:16:35.483Z,14.33
2023-05-08T20:19:06.427Z,12.20
2023-05-08T20:21:37.473Z,13.95
2023-05-08T20:24:09.113Z,12.88
2023-05-08T20:26:40.734Z,13.28
2023-05-08T20:29:11.975Z,12.58
2023-05-08T20:31:45.991Z,13.30
2023-05-08T20:34:21.911Z,12.65
2023-05-08T20:39:47.105Z,12.53
2023-05-08T20:42:18.015Z,13.43
2023-05-08T20:44:48.765Z,12.80
2023-05-08T20:47:19.528Z,15.00
2023-05-08T20:49:50.260Z,12.03
2023-05-08T20:52:21.080Z,14.85
2023-05-08T20:54:51.840Z,14.25
2023-05-08T20:57:22.566Z,13.28
2023-05-08T21:00:03.623Z,13.98
2023-05-08T21:02:54.855Z,14.07
2023-05-08T21:05:32.324Z,14.83
2023-05-08T21:11:00.189Z,15.38
2023-05-08T21:13:31.086Z,14.07
2023-05-08T21:16:01.931Z,13.45
2023-05-08T21:18:32.901Z,14.35
2023-05-08T21:21:03.809Z,14.18
2023-05-08T21:23:34.583Z,15.65
2023-05-08T21:26:05.347Z,12.47
2023-05-08T21:28:36.359Z,12.95
2023-05-08T21:31:07.331Z,12.73
2023-05-08T21:33:38.252Z,15.03
2023-05-08T21:36:09.481Z,14.15
2023-05-08T21:38:40.311Z,13.70
2023-05-08T21:41:11.670Z,15.10
2023-05-08T21:43:42.614Z,16.48
2023-05-08T21:46:13.520Z,14.78
2023-05-08T21:48:44.363Z,13.30
2023-05-08T21:51:15.906Z,18.75
2023-05-08T21:53:46.617Z,15.90
2023-05-08T21:56:17.851Z,15.38
2023-05-08T21:58:48.600Z,17.07
2023-05-08T22:01:19.789Z,14.63
2023-05-08T22:03:52.231Z,14.45
2023-05-08T22:06:23.085Z,14.13
2023-05-08T22:09:04.488Z,17.02
2023-05-08T22:11:35.368Z,17.48
2023-05-08T22:14:06.100Z,16.30
2023-05-08T22:19:25.818Z,17.48
2023-05-08T22:21:56.542Z,19.30
2023-05-08T22:24:28.034Z,15.53
2023-05-08T22:26:58.886Z,17.82
2023-05-08T22:29:29.624Z,16.52
2023-05-08T22:32:00.515Z,18.00
2023-05-08T22:34:31.492Z,17.45
2023-05-08T22:37:02.334Z,17.52
2023-05-08T22:39:33.180Z,15.93
2023-05-08T22:42:05.350Z,16.57
2023-05-08T22:44:36.320Z,15.63
2023-05-08T22:47:12.961Z,19.12
2023-05-08T22:52:19.757Z,16.70
2023-05-08T22:57:51.770Z,19.20
2023-05-08T23:00:23.261Z,16.93
2023-05-08T23:02:54.396Z,17.00
2023-05-08T23:05:25.623Z,21.68
2023-05-08T23:07:56.444Z,20.72
2023-05-08T23:10:27.195Z,20.17
2023-05-08T23:12:57.992Z,21.33
2023-05-08T23:15:28.917Z,20.45
2023-05-08T23:17:59.868Z,17.45
2023-05-08T23:23:22.011Z,21.55
2023-05-08T23:28:57.539Z,25.20
2023-05-08T23:37:06.952Z,27.40
2023-05-08T23:39:49.054Z,25.62
2023-05-08T23:45:22.496Z,33.13
2023-05-08T23:47:53.032Z,25.57
2023-05-08T23:56:15.309Z,22.22
